createdAt,value
2018-06-04T00:01:17.166Z,18.34
2018-06-04T00:03:45.751Z,18.23
2018-06-04T00:06:14.325Z,18.14
2018-06-04T00:08:42.922Z,18.17
2018-06-04T00:11:11.494Z,18.20
2018-06-04T00:13:40.162Z,18.17
2018-06-04T00:16:08.716Z,18.13
2018-06-04T00:18:37.320Z,18.14
2018-06-04T00:21:05.907Z,18.21
2018-06-04T00:23:34.558Z,18.18
2018-06-04T00:26:03.117Z,18.14
2018-06-04T00:28:31.682Z,18.16
2018-06-04T00:31:00.238Z,18.38
2018-06-04T00:33:28.827Z,18.39
2018-06-04T00:35:57.397Z,18.38
2018-06-04T00:38:26.009Z,18.37
2018-06-04T00:40:54.661Z,18.32
2018-06-04T00:43:23.320Z,18.34
2018-06-04T00:45:51.920Z,18.28
2018-06-04T00:48:20.535Z,18.27
2018-06-04T00:50:49.076Z,18.29
2018-06-04T00:53:17.688Z,18.30
2018-06-04T00:55:57.268Z,18.34
2018-06-04T00:58:25.845Z,18.34
2018-06-04T01:00:54.385Z,18.28
2018-06-04T01:03:22.955Z,18.23
2018-06-04T01:05:51.591Z,18.16
2018-06-04T01:08:20.201Z,18.08
2018-06-04T01:10:48.784Z,18.05
2018-06-04T01:13:17.378Z,18.05
2018-06-04T01:15:46.071Z,18.03
2018-06-04T01:18:14.712Z,18.03
2018-06-04T01:20:43.331Z,18.02
2018-06-04T01:23:11.926Z,18.04
2018-06-04T01:25:40.488Z,18.01
2018-06-04T01:28:09.068Z,18.00
2018-06-04T01:30:37.738Z,18.01
2018-06-04T01:33:06.336Z,17.93
2018-06-04T01:35:34.976Z,17.92
2018-06-04T01:38:03.597Z,17.92
2018-06-04T01:40:32.152Z,17.92
2018-06-04T01:43:00.757Z,17.85
2018-06-04T01:45:29.396Z,17.83
2018-06-04T01:47:57.951Z,17.76
2018-06-04T01:50:26.624Z,17.79
2018-06-04T01:52:55.226Z,17.71
2018-06-04T01:55:23.981Z,17.77
2018-06-04T01:57:52.580Z,17.75
2018-06-04T02:00:21.220Z,17.71
2018-06-04T02:02:49.752Z,17.70
2018-06-04T02:05:18.364Z,17.65
2018-06-04T02:07:46.995Z,17.60
2018-06-04T02:10:15.644Z,17.56
2018-06-04T02:12:44.287Z,17.51
2018-06-04T02:15:12.903Z,17.46
2018-06-04T02:17:41.545Z,17.46
2018-06-04T02:20:10.130Z,17.49
2018-06-04T02:22:38.801Z,17.51
2018-06-04T02:25:07.382Z,17.50
2018-06-04T02:27:36.060Z,17.53
2018-06-04T02:30:05.033Z,17.49
2018-06-04T02:32:33.687Z,17.39
2018-06-04T02:35:02.302Z,17.46
2018-06-04T02:37:30.922Z,17.44
2018-06-04T02:39:59.481Z,17.37
2018-06-04T02:42:28.069Z,17.29
2018-06-04T02:44:56.610Z,17.27
2018-06-04T02:47:25.214Z,17.17
2018-06-04T02:49:53.819Z,17.06
2018-06-04T02:52:22.404Z,17.06
2018-06-04T02:54:50.931Z,17.09
2018-06-04T02:57:19.497Z,16.99
2018-06-04T02:59:48.082Z,16.95
2018-06-04T03:02:16.717Z,16.95
2018-06-04T03:04:45.385Z,16.94
2018-06-04T03:07:14.000Z,16.87
2018-06-04T03:09:42.586Z,16.83
2018-06-04T03:12:11.221Z,16.86
2018-06-04T03:14:39.826Z,16.87
2018-06-04T03:17:08.446Z,16.88
2018-06-04T03:19:37.061Z,16.89
2018-06-04T03:22:05.633Z,16.90
2018-06-04T03:24:34.337Z,16.96
2018-06-04T03:27:02.929Z,17.04
2018-06-04T03:29:31.493Z,17.17
2018-06-04T03:32:00.084Z,17.37
2018-06-04T03:34:28.714Z,17.65
2018-06-04T03:36:57.322Z,17.91
2018-06-04T03:39:25.914Z,18.18
2018-06-04T03:41:54.493Z,18.50
2018-06-04T03:44:23.070Z,18.87
2018-06-04T03:46:51.710Z,19.25
2018-06-04T03:49:20.341Z,19.32
2018-06-04T03:51:48.966Z,19.15
2018-06-04T03:54:17.646Z,19.15
2018-06-04T03:56:46.247Z,19.31
2018-06-04T03:59:14.784Z,19.33
2018-06-04T04:01:43.415Z,19.38
2018-06-04T04:04:12.113Z,16.73
2018-06-04T04:06:40.736Z,19.79
2018-06-04T04:09:09.670Z,20.53
2018-06-04T04:11:38.234Z,20.44
2018-06-04T04:14:06.865Z,20.34
2018-06-04T04:16:37.868Z,20.51
2018-06-04T04:19:06.825Z,20.64
2018-06-04T04:21:35.507Z,20.77
2018-06-04T04:24:04.080Z,21.08
2018-06-04T04:26:32.791Z,21.26
2018-06-04T04:29:01.314Z,21.85
2018-06-04T04:31:29.860Z,22.53
2018-06-04T04:33:58.516Z,22.38
2018-06-04T04:36:27.070Z,22.57
2018-06-04T04:38:55.589Z,22.79
2018-06-04T04:41:24.189Z,22.92
2018-06-04T04:43:52.716Z,23.28
2018-06-04T04:46:21.282Z,23.02
2018-06-04T04:48:49.889Z,22.95
2018-06-04T04:51:18.495Z,22.95
2018-06-04T04:53:47.012Z,22.84
2018-06-04T04:56:15.803Z,22.79
2018-06-04T04:58:44.386Z,23.05
2018-06-04T05:01:12.966Z,23.27
2018-06-04T05:03:41.542Z,23.81
2018-06-04T05:06:10.118Z,24.12
2018-06-04T05:08:38.738Z,24.26
2018-06-04T05:11:07.268Z,24.47
2018-06-04T05:13:35.793Z,24.64
2018-06-04T05:16:04.288Z,24.58
2018-06-04T05:18:32.868Z,24.76
2018-06-04T05:21:01.421Z,24.93
2018-06-04T05:23:30.019Z,25.04
2018-06-04T05:25:58.561Z,25.06
2018-06-04T05:28:27.094Z,25.10
2018-06-04T05:30:55.625Z,24.57
2018-06-04T05:33:24.178Z,24.76
2018-06-04T05:35:52.701Z,24.74
2018-06-04T05:38:21.224Z,25.03
2018-06-04T05:40:49.764Z,24.88
2018-06-04T05:43:18.389Z,24.55
2018-06-04T05:45:47.077Z,24.96
2018-06-04T05:48:15.704Z,25.80
2018-06-04T05:50:44.246Z,26.29
2018-06-04T05:53:12.836Z,26.26
2018-06-04T05:55:41.410Z,26.82
2018-06-04T05:58:09.993Z,26.92
2018-06-04T06:00:38.542Z,27.60
2018-06-04T06:03:07.229Z,28.12
2018-06-04T06:05:35.947Z,27.93
2018-06-04T06:08:04.612Z,28.20
2018-06-04T06:10:33.240Z,28.42
2018-06-04T06:13:01.765Z,29.63
2018-06-04T06:15:30.417Z,29.53
2018-06-04T06:17:59.022Z,29.00
2018-06-04T06:20:27.577Z,29.25
2018-06-04T06:22:56.155Z,29.17
2018-06-04T06:25:24.768Z,29.35
2018-06-04T06:27:53.350Z,29.54
2018-06-04T06:30:22.006Z,30.23
2018-06-04T06:32:50.551Z,30.29
2018-06-04T06:35:19.277Z,30.29
2018-06-04T06:37:47.874Z,31.41
2018-06-04T06:40:16.558Z,31.92
2018-06-04T06:42:45.100Z,31.04
2018-06-04T06:45:13.747Z,30.94
2018-06-04T06:47:42.343Z,32.12
2018-06-04T06:50:11.275Z,31.47
2018-06-04T06:52:39.902Z,32.28
2018-06-04T06:55:08.471Z,31.35
2018-06-04T06:57:37.038Z,32.99
2018-06-04T07:00:05.645Z,31.79
2018-06-04T07:02:34.261Z,31.32
2018-06-04T07:05:02.851Z,32.36
2018-06-04T07:07:31.419Z,32.38
2018-06-04T07:09:59.994Z,31.92
2018-06-04T07:12:28.509Z,32.17
2018-06-04T07:14:57.051Z,31.04
2018-06-04T07:17:25.685Z,31.42
2018-06-04T07:19:54.464Z,31.14
2018-06-04T07:22:23.029Z,31.79
2018-06-04T07:24:51.560Z,31.54
2018-06-04T07:27:20.637Z,32.59
2018-06-04T07:29:49.505Z,31.37
2018-06-04T07:32:18.156Z,32.10
2018-06-04T07:34:47.326Z,31.53
2018-06-04T07:37:16.011Z,31.29
2018-06-04T07:39:44.553Z,31.40
2018-06-04T07:42:13.277Z,32.00
2018-06-04T07:44:41.833Z,32.21
2018-06-04T07:47:10.387Z,31.57
2018-06-04T07:49:39.015Z,32.31
2018-06-04T07:52:07.621Z,34.32
2018-06-04T07:54:36.289Z,32.60
2018-06-04T07:57:04.984Z,32.80
2018-06-04T07:59:33.482Z,32.91
2018-06-04T08:02:02.080Z,32.69
2018-06-04T08:04:30.625Z,32.43
2018-06-04T08:06:59.186Z,33.64
2018-06-04T08:09:27.767Z,34.40
2018-06-04T08:11:56.291Z,33.43
2018-06-04T08:14:24.817Z,32.49
2018-06-04T08:16:53.326Z,33.30
2018-06-04T08:19:21.960Z,33.12
2018-06-04T08:21:50.559Z,35.31
2018-06-04T08:24:19.174Z,34.18
2018-06-04T08:26:47.693Z,34.54
2018-06-04T08:29:16.268Z,35.05
2018-06-04T08:31:44.763Z,36.26
2018-06-04T08:34:13.293Z,35.45
2018-06-04T08:36:41.800Z,36.62
2018-06-04T08:39:10.342Z,35.64
2018-06-04T08:41:38.849Z,35.96
2018-06-04T08:44:07.389Z,36.03
2018-06-04T08:46:35.939Z,34.54
2018-06-04T08:49:04.519Z,34.21
2018-06-04T08:51:33.224Z,34.78
2018-06-04T08:54:01.761Z,35.20
2018-06-04T08:56:30.274Z,33.88
2018-06-04T08:58:58.826Z,34.08
2018-06-04T09:01:27.341Z,35.95
2018-06-04T09:03:55.902Z,35.18
2018-06-04T09:06:24.555Z,34.51
2018-06-04T09:08:54.084Z,34.09
2018-06-04T09:11:22.590Z,33.16
2018-06-04T09:13:51.110Z,33.45
2018-06-04T09:16:19.694Z,33.48
2018-06-04T09:18:48.227Z,33.59
2018-06-04T09:21:16.806Z,33.45
2018-06-04T09:23:45.373Z,33.74
2018-06-04T09:26:13.894Z,34.15
2018-06-04T09:28:42.426Z,34.41
2018-06-04T09:31:10.921Z,34.82
2018-06-04T09:33:39.500Z,33.68
2018-06-04T09:36:08.072Z,33.48
2018-06-04T09:38:37.886Z,33.49
2018-06-04T09:41:06.556Z,36.63
2018-06-04T09:43:35.103Z,35.71
2018-06-04T09:46:03.743Z,34.70
2018-06-04T09:48:32.240Z,34.04
2018-06-04T09:51:00.774Z,33.83
2018-06-04T09:53:29.277Z,33.47
2018-06-04T09:55:57.785Z,34.04
2018-06-04T09:58:26.337Z,33.53
2018-06-04T10:00:54.878Z,33.21
2018-06-04T10:03:23.395Z,33.91
2018-06-04T10:05:52.121Z,34.72
2018-06-04T10:08:20.625Z,34.88
2018-06-04T10:10:49.111Z,33.79
2018-06-04T10:13:17.682Z,33.09
2018-06-04T10:15:46.225Z,33.21
2018-06-04T10:18:14.969Z,34.54
2018-06-04T10:20:44.145Z,32.99
2018-06-04T10:23:12.703Z,33.08
2018-06-04T10:25:41.187Z,33.62
2018-06-04T10:28:09.702Z,36.33
2018-06-04T10:30:38.195Z,34.80
2018-06-04T10:33:06.763Z,34.45
2018-06-04T10:35:35.419Z,36.16
2018-06-04T10:38:03.958Z,37.26
2018-06-04T10:40:32.583Z,35.84
2018-06-04T10:43:01.247Z,34.63
2018-06-04T10:45:29.772Z,34.32
2018-06-04T10:47:58.301Z,35.94
2018-06-04T10:50:26.806Z,34.73
2018-06-04T10:52:55.359Z,33.15
2018-06-04T10:55:23.938Z,32.92
2018-06-04T10:57:52.451Z,33.73
2018-06-04T11:00:20.973Z,33.94
2018-06-04T11:02:49.481Z,34.02
2018-06-04T11:05:18.005Z,33.54
2018-06-04T11:07:46.712Z,34.13
2018-06-04T11:10:15.489Z,33.71
2018-06-04T11:12:44.229Z,32.57
2018-06-04T11:15:12.898Z,33.32
2018-06-04T11:17:41.581Z,33.31
2018-06-04T11:20:10.276Z,31.02
2018-06-04T11:22:38.908Z,30.62
2018-06-04T11:25:07.557Z,30.12
2018-06-04T11:27:37.264Z,29.66
2018-06-04T11:30:06.047Z,29.68
2018-06-04T11:32:34.764Z,29.24
2018-06-04T11:35:03.546Z,29.44
2018-06-04T11:37:32.456Z,29.21
2018-06-04T11:40:01.169Z,29.40
2018-06-04T11:42:29.802Z,30.59
2018-06-04T11:44:58.577Z,30.28
2018-06-04T11:47:27.301Z,29.94
2018-06-04T11:49:56.038Z,29.37
2018-06-04T11:52:24.957Z,28.91
2018-06-04T11:54:53.609Z,28.37
2018-06-04T11:57:22.304Z,28.29
2018-06-04T11:59:51.033Z,28.02
2018-06-04T12:02:19.781Z,28.25
2018-06-04T12:04:48.402Z,28.05
2018-06-04T12:07:17.164Z,28.20
2018-06-04T12:09:45.843Z,28.25
2018-06-04T12:12:14.473Z,28.22
2018-06-04T12:14:43.090Z,28.23
2018-06-04T12:17:11.781Z,28.12
2018-06-04T12:19:40.453Z,28.22
2018-06-04T12:22:09.136Z,28.88
2018-06-04T12:24:37.858Z,28.36
2018-06-04T12:27:06.592Z,28.28
2018-06-04T12:29:35.271Z,28.22
2018-06-04T12:32:04.075Z,28.30
2018-06-04T12:34:32.589Z,28.12
2018-06-04T12:37:01.149Z,27.94
2018-06-04T12:39:29.663Z,28.03
2018-06-04T12:41:58.257Z,28.42
2018-06-04T12:44:26.860Z,28.62
2018-06-04T12:46:55.405Z,28.22
2018-06-04T12:49:24.008Z,28.60
2018-06-04T12:51:52.549Z,28.96
2018-06-04T12:54:21.143Z,28.61
2018-06-04T12:56:49.660Z,28.37
2018-06-04T12:59:18.234Z,28.33
2018-06-04T13:01:46.757Z,28.37
2018-06-04T13:04:15.377Z,28.87
2018-06-04T13:06:43.903Z,28.97
2018-06-04T13:09:12.426Z,29.28
2018-06-04T13:11:41.048Z,28.87
2018-06-04T13:14:09.569Z,28.33
2018-06-04T13:16:38.134Z,28.13
2018-06-04T13:19:06.679Z,28.20
2018-06-04T13:21:35.210Z,28.36
2018-06-04T13:24:03.830Z,28.47
2018-06-04T13:26:32.364Z,28.42
2018-06-04T13:29:00.952Z,28.35
2018-06-04T13:31:29.439Z,28.07
2018-06-04T13:33:58.017Z,28.18
2018-06-04T13:36:26.527Z,28.12
2018-06-04T13:38:55.168Z,28.05
2018-06-04T13:41:23.798Z,28.36
2018-06-04T13:43:52.312Z,28.44
2018-06-04T13:46:20.798Z,28.40
2018-06-04T13:48:49.357Z,28.30
2018-06-04T13:51:17.966Z,28.62
2018-06-04T13:53:46.495Z,28.58
2018-06-04T13:56:15.033Z,28.66
2018-06-04T13:58:43.688Z,28.38
2018-06-04T14:01:12.233Z,28.31
2018-06-04T14:03:40.908Z,28.41
2018-06-04T14:06:09.665Z,28.26
2018-06-04T14:08:38.304Z,28.26
2018-06-04T14:11:07.338Z,28.25
2018-06-04T14:13:36.030Z,28.23
2018-06-04T14:16:04.850Z,28.51
2018-06-04T14:18:33.648Z,28.35
2018-06-04T14:21:02.285Z,28.13
2018-06-04T14:23:31.110Z,28.26
2018-06-04T14:25:59.984Z,28.44
2018-06-04T14:28:28.714Z,28.36
2018-06-04T14:30:57.473Z,28.26
2018-06-04T14:33:26.196Z,28.30
2018-06-04T14:35:55.032Z,28.68
2018-06-04T14:38:23.784Z,28.45
2018-06-04T14:40:52.505Z,28.41
2018-06-04T14:43:21.318Z,28.24
2018-06-04T14:45:49.973Z,28.29
2018-06-04T14:48:18.624Z,28.24
2018-06-04T14:50:47.289Z,28.23
2018-06-04T14:53:16.174Z,28.19
2018-06-04T14:55:44.872Z,28.22
2018-06-04T14:58:13.537Z,28.14
2018-06-04T15:00:42.276Z,28.18
2018-06-04T15:03:10.925Z,28.26
2018-06-04T15:05:39.788Z,28.65
2018-06-04T15:08:08.410Z,28.39
2018-06-04T15:10:37.179Z,28.29
2018-06-04T15:13:05.976Z,28.33
2018-06-04T15:15:34.652Z,28.13
2018-06-04T15:18:03.335Z,28.16
2018-06-04T15:20:31.930Z,28.26
2018-06-04T15:23:00.586Z,28.25
2018-06-04T15:25:29.251Z,28.18
2018-06-04T15:27:58.153Z,28.13
2018-06-04T15:30:26.984Z,28.08
2018-06-04T15:32:55.785Z,28.05
2018-06-04T15:35:24.489Z,28.18
2018-06-04T15:37:53.317Z,28.23
2018-06-04T15:40:21.936Z,28.33
2018-06-04T15:42:50.986Z,28.33
2018-06-04T15:45:19.641Z,28.42
2018-06-04T15:47:48.398Z,28.04
2018-06-04T15:50:17.071Z,28.05
2018-06-04T15:52:45.709Z,28.17
2018-06-04T15:55:14.508Z,27.98
2018-06-04T15:57:43.046Z,28.23
2018-06-04T16:00:11.554Z,27.99
2018-06-04T16:02:40.112Z,27.91
2018-06-04T16:05:08.979Z,27.99
2018-06-04T16:07:37.497Z,27.99
2018-06-04T16:10:06.029Z,27.76
2018-06-04T16:12:34.554Z,27.75
2018-06-04T16:15:03.094Z,27.66
2018-06-04T16:17:31.594Z,27.47
2018-06-04T16:20:00.152Z,27.42
2018-06-04T16:22:28.671Z,27.54
2018-06-04T16:24:57.192Z,27.49
2018-06-04T16:27:25.685Z,27.51
2018-06-04T16:29:54.228Z,27.56
2018-06-04T16:32:22.745Z,27.60
2018-06-04T16:34:51.297Z,27.64
2018-06-04T16:37:19.866Z,27.64
2018-06-04T16:39:48.356Z,27.65
2018-06-04T16:42:16.868Z,27.63
2018-06-04T16:44:45.454Z,27.61
2018-06-04T16:47:13.912Z,27.58
2018-06-04T16:49:42.419Z,27.54
2018-06-04T16:52:10.916Z,27.49
2018-06-04T16:54:39.444Z,27.42
2018-06-04T16:57:08.962Z,27.41
2018-06-04T16:59:37.561Z,27.45
2018-06-04T17:02:06.201Z,27.16
2018-06-04T17:04:34.717Z,26.92
2018-06-04T17:07:03.204Z,26.76
2018-06-04T17:09:31.697Z,26.59
2018-06-04T17:12:00.209Z,26.43
2018-06-04T17:14:28.694Z,26.41
2018-06-04T17:16:57.208Z,26.36
2018-06-04T17:19:25.724Z,26.36
2018-06-04T17:21:54.265Z,26.43
2018-06-04T17:24:22.776Z,26.51
2018-06-04T17:26:51.305Z,26.50
2018-06-04T17:29:19.792Z,26.40
2018-06-04T17:31:48.310Z,26.31
2018-06-04T17:34:16.816Z,26.32
2018-06-04T17:36:45.329Z,26.21
2018-06-04T17:39:13.907Z,26.08
2018-06-04T17:41:42.466Z,25.95
2018-06-04T17:44:11.025Z,25.82
2018-06-04T17:46:39.625Z,25.83
2018-06-04T17:49:08.220Z,25.88
2018-06-04T17:51:36.881Z,25.85
2018-06-04T17:54:05.436Z,25.88
2018-06-04T17:56:34.000Z,25.86
2018-06-04T17:59:02.501Z,25.87
2018-06-04T18:01:31.042Z,25.84
2018-06-04T18:03:59.573Z,25.82
2018-06-04T18:06:28.072Z,25.72
2018-06-04T18:08:56.650Z,25.64
2018-06-04T18:11:25.288Z,25.59
2018-06-04T18:13:53.873Z,25.58
2018-06-04T18:16:22.370Z,25.51
2018-06-04T18:18:50.937Z,25.49
2018-06-04T18:21:19.479Z,25.45
2018-06-04T18:23:48.051Z,25.39
2018-06-04T18:26:16.723Z,25.40
2018-06-04T18:28:45.291Z,25.28
2018-06-04T18:31:13.864Z,25.19
2018-06-04T18:33:42.425Z,25.17
2018-06-04T18:36:10.966Z,25.15
2018-06-04T18:38:39.498Z,25.13
2018-06-04T18:41:08.005Z,25.07
2018-06-04T18:43:36.553Z,24.98
2018-06-04T18:46:05.057Z,24.95
2018-06-04T18:48:33.612Z,24.87
2018-06-04T18:51:02.150Z,24.70
2018-06-04T18:53:30.769Z,24.63
2018-06-04T18:55:59.289Z,24.51
2018-06-04T18:58:27.813Z,24.49
2018-06-04T19:00:56.323Z,24.43
2018-06-04T19:03:24.917Z,24.37
2018-06-04T19:05:53.478Z,24.27
2018-06-04T19:08:22.014Z,24.26
2018-06-04T19:10:50.611Z,24.15
2018-06-04T19:13:19.151Z,24.10
2018-06-04T19:15:47.739Z,24.01
2018-06-04T19:18:16.295Z,23.92
2018-06-04T19:20:44.873Z,23.86
2018-06-04T19:23:13.410Z,23.82
2018-06-04T19:25:41.961Z,23.80
2018-06-04T19:28:10.481Z,23.75
2018-06-04T19:30:39.023Z,23.79
2018-06-04T19:33:07.845Z,23.76
2018-06-04T19:35:36.345Z,23.75
2018-06-04T19:38:05.025Z,23.72
2018-06-04T19:40:33.633Z,23.64
2018-06-04T19:43:02.181Z,23.60
2018-06-04T19:45:30.761Z,23.55
2018-06-04T19:47:59.245Z,23.49
2018-06-04T19:50:27.845Z,23.44
2018-06-04T19:52:56.410Z,23.39
2018-06-04T19:55:24.963Z,23.37
2018-06-04T19:57:53.518Z,23.30
2018-06-04T20:00:22.012Z,23.28
2018-06-04T20:02:50.627Z,23.25
2018-06-04T20:05:19.151Z,23.21
2018-06-04T20:07:47.736Z,23.11
2018-06-04T20:10:16.273Z,23.05
2018-06-04T20:12:44.885Z,22.99
2018-06-04T20:15:13.411Z,22.93
2018-06-04T20:17:42.019Z,22.88
2018-06-04T20:20:10.593Z,22.84
2018-06-04T20:22:39.145Z,22.81
2018-06-04T20:25:07.708Z,22.79
2018-06-04T20:27:36.245Z,22.73
2018-06-04T20:30:05.196Z,22.65
2018-06-04T20:32:33.740Z,22.60
2018-06-04T20:35:02.495Z,22.52
2018-06-04T20:37:31.269Z,22.40
2018-06-04T20:39:59.908Z,22.34
2018-06-04T20:42:28.606Z,22.22
2018-06-04T20:44:57.469Z,22.05
2018-06-04T20:47:26.408Z,21.94
2018-06-04T20:49:55.132Z,21.89
2018-06-04T20:52:24.003Z,21.80
2018-06-04T20:54:52.780Z,21.66
2018-06-04T20:57:21.706Z,21.58
2018-06-04T20:59:51.493Z,21.52
2018-06-04T21:02:20.351Z,21.40
2018-06-04T21:04:49.256Z,21.33
2018-06-04T21:07:17.902Z,21.26
2018-06-04T21:09:46.610Z,21.16
2018-06-04T21:12:15.240Z,21.07
2018-06-04T21:14:44.061Z,21.07
2018-06-04T21:17:12.796Z,21.03
2018-06-04T21:19:43.431Z,20.96
2018-06-04T21:22:12.311Z,20.90
2018-06-04T21:24:41.023Z,20.80
2018-06-04T21:27:09.698Z,20.74
2018-06-04T21:29:38.486Z,20.71
2018-06-04T21:32:07.079Z,20.63
2018-06-04T21:34:35.729Z,20.54
2018-06-04T21:37:04.434Z,20.52
2018-06-04T21:39:33.226Z,20.55
2018-06-04T21:42:01.883Z,20.60
2018-06-04T21:44:30.635Z,20.69
2018-06-04T21:46:59.471Z,20.73
2018-06-04T21:49:28.098Z,20.71
2018-06-04T21:51:57.622Z,20.72
2018-06-04T21:54:26.332Z,20.70
2018-06-04T21:56:55.244Z,20.62
2018-06-04T21:59:24.007Z,20.59
2018-06-04T22:01:52.764Z,20.56
2018-06-04T22:04:21.673Z,20.54
2018-06-04T22:06:50.399Z,20.56
2018-06-04T22:09:19.074Z,20.53
2018-06-04T22:11:47.893Z,20.50
2018-06-04T22:14:16.583Z,20.45
2018-06-04T22:16:45.405Z,20.45
2018-06-04T22:19:14.181Z,20.39
2018-06-04T22:21:42.894Z,20.25
2018-06-04T22:24:11.913Z,20.36
2018-06-04T22:26:40.630Z,20.59
2018-06-04T22:29:09.330Z,20.63
2018-06-04T22:31:38.129Z,20.67
2018-06-04T22:34:06.880Z,20.77
2018-06-04T22:36:35.625Z,20.72
2018-06-04T22:39:06.809Z,20.75
2018-06-04T22:41:35.533Z,20.77
2018-06-04T22:44:05.605Z,20.53
2018-06-04T22:46:34.237Z,20.44
2018-06-04T22:49:07.439Z,20.32
2018-06-04T22:51:36.444Z,20.35
2018-06-04T22:54:05.176Z,20.26
2018-06-04T22:56:34.058Z,20.27
2018-06-04T22:59:02.872Z,20.25
2018-06-04T23:01:31.434Z,20.24
2018-06-04T23:04:00.151Z,20.25
2018-06-04T23:06:28.865Z,20.27
2018-06-04T23:08:57.460Z,20.34
2018-06-04T23:11:26.099Z,20.46
2018-06-04T23:13:54.958Z,20.41
2018-06-04T23:16:23.624Z,20.37
2018-06-04T23:18:52.233Z,20.30
2018-06-04T23:21:21.138Z,20.26
2018-06-04T23:23:49.837Z,20.13
2018-06-04T23:26:18.554Z,20.10
2018-06-04T23:28:47.323Z,19.98
2018-06-04T23:31:15.977Z,19.87
2018-06-04T23:33:44.703Z,19.74
2018-06-04T23:36:13.500Z,19.64
2018-06-04T23:38:42.248Z,19.56
2018-06-04T23:41:10.948Z,19.45
2018-06-04T23:43:39.791Z,19.34
2018-06-04T23:46:08.457Z,19.21
2018-06-04T23:48:37.148Z,19.16
2018-06-04T23:51:05.932Z,19.10
2018-06-04T23:53:34.654Z,19.07
2018-06-04T23:56:03.251Z,19.14
2018-06-04T23:58:32.266Z,19.09
